Airfield :
LOGIN :

Register | Disclaimer

   EN    FR    IT 

 










Legend :    VFR   Marginal VFR   IFR   Intensive IFR   Very Intensive IFR
Visi :
Ceiling :
>= 8 km
>= 3000ft
5 to 8 km
1000 to 3000 ft
1500m to 5 km
500 to 1000 ft
800 to 1500m
200 to 500 ft
< 800m
< 200 ft
Symbols :   Thunderstorms  Fog  Heavy snow  Heavy precipitations  Wind > 20 kt
SIGMETs :     Misc.  Thunderstorms  Icing  Turbulence  Mountain Waves  Volcanic Ashes






- Airport Elevation : 675 ft
- IATA code : RZE


EPRZ - Rzeszow-Jasionka

CURRENT METAR :
  • 201930Z 20002KT 2600 BR NSC M00/M01 Q1022

EXPIRED METARs :
  • 201900Z 22003KT 2400 BR NSC 00/M00 Q1022
  • 201830Z 21003KT 3000 R27/2000N BR NSC M00/M01 Q1022
  • 201800Z 24002KT 6000 NSC 01/00 Q1022
  • 201730Z 21002KT 6000 NSC 02/01 Q1022
  • 201700Z VRB02KT 9999 FEW046 02/01 Q1022

TAF TAF EPRZ
Valid from the 20 at 18:00 until the 21 at 18:00 UTC


201730Z 2018/2118 VRB02KT 9999 SCT045
BECMG 2018/2020 2000 BR
TEMPO 2020/2102 0400 FZFG OVC001
BECMG 2102/2105 20010KT 7000
BECMG 2109/2112 23015G25KT 4000 RA SNRA BKN008 BKN014
BECMG 2113/2115 29020G30KT
BECMG 2115/2118 8000 NSW BKN020
TEMPO 2115/2118 BKN013CB



MET'MAP, your aeronautical weather chart ! - Copyright ORBIFLY December 2007 - Disclaimer

ORBIFLY MET'MAP TEAM :

Programming & Development : Alexandra Zaïnal
Concept & original design : Baudouin d'Aumeries
Assistance for programming : Marc-Olivier Méhu
Technical & hardware support : Manuel Goepfert

Contact : metmap@orbifly.com




SOURCES & CREDITS :

   NOAA